^^
Grace C. Lehan Memorial Weather Station Historical Data
Daily Summary for November 5, 2021 Units:  Both    English   Metric
Daily Weekly Monthly Yearly
  High: Low: Average:
Temperature: 52.2 °F /  11.2 °C 30.5 °F /  -0.8 °C 40.9 °F /  4.9 °C
Dew Point: 35.9 °F /  2.2 °C 28.4 °F /  -2 °C 30.7 °F /  -0.7 °C
Humidity: 93% 42.9% 70%
Wind Speed: 2.4mph /  3.9km/h - 0.3mph /  0.5km/h
Wind Gust: 11mph /  17.7km/h - -
Wind- - SSW
Pressure: 30.38 in /  1028.7 hPa 30.24 in /  1023.9 hPa -
Precipitation: 0.00 in /  0 mm    
 
 
Tabular Data for November 5, 2021
Time Temperature Dew Point Pressure Wind Wind Speed Wind Gust Humidity Rainfall Rate (Hourly) solar
00:00 36.6 °F /  2.6 °C 31.9 °F /  -0.1 °C 30.26in /  1024.6hPa Calm     83% 0.00in /  0mm 0 W/m2
00:09 36.3 °F /  2.4 °C 31.9 °F /  -0.1 °C 30.26in /  1024.6hPa Calm     84% 0.00in /  0mm 0 W/m2
00:14 36.1 °F /  2.3 °C 31.7 °F /  -0.2 °C 30.26in /  1024.6hPa Calm     84% 0.00in /  0mm 0 W/m2
00:19 35.9 °F /  2.2 °C 31.7 °F /  -0.2 °C 30.26in /  1024.6hPa Calm     84.5% 0.00in /  0mm 0 W/m2
00:24 35.8 °F /  2.1 °C 31.7 °F /  -0.2 °C 30.26in /  1024.6hPa Calm     85% 0.00in /  0mm 0 W/m2
00:29 35.6 °F /  2 °C 31.6 °F /  -0.2 °C 30.26in /  1024.6hPa Calm     85.2% 0.00in /  0mm 0 W/m2
00:34 35.5 °F /  1.9 °C 31.7 °F /  -0.2 °C 30.25in /  1024.3hPa Calm     86% 0.00in /  0mm 0 W/m2
00:39 35.3 °F /  1.8 °C 31.6 °F /  -0.2 °C 30.25in /  1024.3hPa Calm     86% 0.00in /  0mm 0 W/m2
00:44 35.1 °F /  1.7 °C 31.4 °F /  -0.3 °C 30.25in /  1024.3hPa Calm     86% 0.00in /  0mm 0 W/m2
00:49 34.9 °F /  1.6 °C 31.2 °F /  -0.4 °C 30.25in /  1024.3hPa Calm     86% 0.00in /  0mm 0 W/m2
00:54 34.7 °F /  1.5 °C 31 °F /  -0.6 °C 30.25in /  1024.3hPa Calm     86.2% 0.00in /  0mm 0 W/m2
00:59 34.6 °F /  1.4 °C 31.1 °F /  -0.5 °C 30.25in /  1024.3hPa Calm     87% 0.00in /  0mm 0 W/m2
01:04 34.5 °F /  1.4 °C 31 °F /  -0.6 °C 30.25in /  1024.3hPa Calm     87% 0.00in /  0mm 0 W/m2
01:09 34.4 °F /  1.3 °C 30.9 °F /  -0.6 °C 30.25in /  1024.3hPa Calm     87% 0.00in /  0mm 0 W/m2
01:14 34.3 °F /  1.3 °C 30.9 °F /  -0.6 °C 30.25in /  1024.3hPa Calm     87.3% 0.00in /  0mm 0 W/m2
01:19 34.2 °F /  1.2 °C 31 °F /  -0.6 °C 30.25in /  1024.3hPa Calm     88% 0.00in /  0mm 0 W/m2
01:24 34.1 °F /  1.2 °C 31 °F /  -0.6 °C 30.25in /  1024.3hPa Calm     88% 0.00in /  0mm 0 W/m2
01:29 34.1 °F /  1.2 °C 30.9 °F /  -0.6 °C 30.25in /  1024.3hPa Calm     88% 0.00in /  0mm 0 W/m2
01:34 34 °F /  1.1 °C 30.8 °F /  -0.7 °C 30.25in /  1024.3hPa Calm     88% 0.00in /  0mm 0 W/m2
01:39 34 °F /  1.1 °C 30.8 °F /  -0.7 °C 30.25in /  1024.3hPa Calm     88% 0.00in /  0mm 0 W/m2
01:44 34 °F /  1.1 °C 30.9 °F /  -0.6 °C 30.25in /  1024.3hPa Calm     88% 0.00in /  0mm 0 W/m2
01:49 34.1 °F /  1.2 °C 30.9 °F /  -0.6 °C 30.24in /  1023.9hPa Calm     88% 0.00in /  0mm 0 W/m2
01:54 34.1 °F /  1.2 °C 30.9 °F /  -0.6 °C 30.25in /  1024.3hPa Calm     88% 0.00in /  0mm 0 W/m2
01:59 34.1 °F /  1.2 °C 30.9 °F /  -0.6 °C 30.25in /  1024.3hPa Calm     88% 0.00in /  0mm 0 W/m2
02:04 34 °F /  1.1 °C 30.8 °F /  -0.7 °C 30.25in /  1024.3hPa Calm     88% 0.00in /  0mm 0 W/m2
02:09 34 °F /  1.1 °C 30.8 °F /  -0.7 °C 30.25in /  1024.3hPa Calm     88% 0.00in /  0mm 0 W/m2
02:14 33.9 °F /  1.1 °C 30.7 °F /  -0.7 °C 30.25in /  1024.3hPa Calm     88% 0.00in /  0mm 0 W/m2
02:19 33.8 °F /  1 °C 30.6 °F /  -0.8 °C 30.25in /  1024.3hPa Calm     88% 0.00in /  0mm 0 W/m2
02:24 33.7 °F /  0.9 °C 30.6 °F /  -0.8 °C 30.25in /  1024.3hPa Calm     88.2% 0.00in /  0mm 0 W/m2
02:29 33.6 °F /  0.9 °C 30.6 °F /  -0.8 °C 30.25in /  1024.3hPa Calm     88.7% 0.00in /  0mm 0 W/m2
02:34 33.5 °F /  0.8 °C 30.6 °F /  -0.8 °C 30.25in /  1024.3hPa Calm     89% 0.00in /  0mm 0 W/m2
02:39 33.5 °F /  0.8 °C 30.6 °F /  -0.8 °C 30.25in /  1024.3hPa Calm     89% 0.00in /  0mm 0 W/m2
02:44 33.4 °F /  0.8 °C 30.5 °F /  -0.8 °C 30.25in /  1024.3hPa Calm     89% 0.00in /  0mm 0 W/m2
02:49 33.4 °F /  0.8 °C 30.5 °F /  -0.8 °C 30.25in /  1024.3hPa Calm     89% 0.00in /  0mm 0 W/m2
02:54 33.4 °F /  0.8 °C 30.7 °F /  -0.7 °C 30.25in /  1024.3hPa Calm     89.6% 0.00in /  0mm 0 W/m2
02:59 33.3 °F /  0.7 °C 30.5 °F /  -0.8 °C 30.25in /  1024.3hPa Calm     89.3% 0.00in /  0mm 0 W/m2
03:04 33.2 °F /  0.7 °C 30.3 °F /  -0.9 °C 30.25in /  1024.3hPa Calm     89% 0.00in /  0mm 0 W/m2
03:09 33.1 °F /  0.6 °C 30.2 °F /  -1 °C 30.25in /  1024.3hPa Calm     89% 0.00in /  0mm 0 W/m2
03:14 33 °F /  0.6 °C 30.1 °F /  -1.1 °C 30.25in /  1024.3hPa Calm     89% 0.00in /  0mm 0 W/m2
03:19 32.8 °F /  0.4 °C 30 °F /  -1.1 °C 30.25in /  1024.3hPa Calm     89% 0.00in /  0mm 0 W/m2
03:24 32.7 °F /  0.4 °C 30 °F /  -1.1 °C 30.25in /  1024.3hPa Calm     89.7% 0.00in /  0mm 0 W/m2
03:29 32.7 °F /  0.4 °C 30.1 °F /  -1.1 °C 30.25in /  1024.3hPa Calm     90% 0.00in /  0mm 0 W/m2
03:34 32.6 °F /  0.3 °C 30 °F /  -1.1 °C 30.25in /  1024.3hPa Calm     90% 0.00in /  0mm 0 W/m2
03:39 32.5 °F /  0.3 °C 29.9 °F /  -1.2 °C 30.25in /  1024.3hPa Calm     90% 0.00in /  0mm 0 W/m2
03:44 32.4 °F /  0.2 °C 29.8 °F /  -1.2 °C 30.25in /  1024.3hPa Calm     90% 0.00in /  0mm 0 W/m2
03:49 32.3 °F /  0.2 °C 29.7 °F /  -1.3 °C 30.25in /  1024.3hPa Calm     90% 0.00in /  0mm 0 W/m2
03:54 32.3 °F /  0.2 °C 29.7 °F /  -1.3 °C 30.25in /  1024.3hPa Calm     90% 0.00in /  0mm 0 W/m2
03:59 32.3 °F /  0.2 °C 29.7 °F /  -1.3 °C 30.25in /  1024.3hPa Calm     90% 0.00in /  0mm 0 W/m2
04:00 32.3 °F /  0.2 °C 29.7 °F /  -1.3 °C 30.25in /  1024.3hPa Calm     90% 0.00in /  0mm 0 W/m2
04:09 32.1 °F /  0.1 °C 29.5 °F /  -1.4 °C 30.25in /  1024.3hPa Calm     90% 0.00in /  0mm 0 W/m2
04:14 32.1 °F /  0.1 °C 29.5 °F /  -1.4 °C 30.25in /  1024.3hPa Calm     90.2% 0.00in /  0mm 0 W/m2
04:19 32 °F /  0 °C 29.7 °F /  -1.3 °C 30.26in /  1024.6hPa Calm     90.9% 0.00in /  0mm 0 W/m2
04:24 31.9 °F /  -0.1 °C 29.6 °F /  -1.3 °C 30.26in /  1024.6hPa Calm     91% 0.00in /  0mm 0 W/m2
04:29 31.9 °F /  -0.1 °C 29.6 °F /  -1.3 °C 30.25in /  1024.3hPa Calm     91% 0.00in /  0mm 0 W/m2
04:34 31.9 °F /  -0.1 °C 29.5 °F /  -1.4 °C 30.25in /  1024.3hPa Calm     91% 0.00in /  0mm 0 W/m2
04:39 31.8 °F /  -0.1 °C 29.4 °F /  -1.4 °C 30.26in /  1024.6hPa Calm     91% 0.00in /  0mm 0 W/m2
04:44 31.7 °F /  -0.2 °C 29.4 °F /  -1.4 °C 30.26in /  1024.6hPa Calm     91% 0.00in /  0mm 0 W/m2
04:49 31.6 °F /  -0.2 °C 29.3 °F /  -1.5 °C 30.26in /  1024.6hPa Calm     91% 0.00in /  0mm 0 W/m2
04:54 31.5 °F /  -0.3 °C 29.2 °F /  -1.6 °C 30.26in /  1024.6hPa Calm     91% 0.00in /  0mm 0 W/m2
04:59 31.4 °F /  -0.3 °C 29.1 °F /  -1.6 °C 30.26in /  1024.6hPa Calm     91% 0.00in /  0mm 0 W/m2
05:04 31.4 °F /  -0.3 °C 29.1 °F /  -1.6 °C 30.26in /  1024.6hPa Calm     91% 0.00in /  0mm 0 W/m2
05:09 31.3 °F /  -0.4 °C 29 °F /  -1.7 °C 30.26in /  1024.6hPa Calm     91% 0.00in /  0mm 0 W/m2
05:14 31.3 °F /  -0.4 °C 29 °F /  -1.7 °C 30.26in /  1024.6hPa Calm     91% 0.00in /  0mm 0 W/m2
05:19 31.3 °F /  -0.4 °C 29 °F /  -1.7 °C 30.26in /  1024.6hPa Calm     91% 0.00in /  0mm 0 W/m2
05:24 31.3 °F /  -0.4 °C 29.2 °F /  -1.6 °C 30.26in /  1024.6hPa Calm     91.8% 0.00in /  0mm 0 W/m2
05:29 31.4 °F /  -0.3 °C 29.4 °F /  -1.4 °C 30.27in /  1024.9hPa Calm     92% 0.00in /  0mm 0 W/m2
05:34 31.3 °F /  -0.4 °C 29.3 °F /  -1.5 °C 30.27in /  1024.9hPa Calm     92% 0.00in /  0mm 0 W/m2
05:39 31.2 °F /  -0.4 °C 29.2 °F /  -1.6 °C 30.27in /  1024.9hPa Calm     92% 0.00in /  0mm 0 W/m2
05:44 31.2 °F /  -0.4 °C 28.9 °F /  -1.7 °C 30.27in /  1024.9hPa Calm     91.2% 0.00in /  0mm 0 W/m2
05:49 31.1 °F /  -0.5 °C 28.9 °F /  -1.7 °C 30.28in /  1025.3hPa Calm     91.1% 0.00in /  0mm 0 W/m2
05:54 31.1 °F /  -0.5 °C 29.1 °F /  -1.6 °C 30.28in /  1025.3hPa Calm     92% 0.00in /  0mm 0 W/m2
05:59 31.1 °F /  -0.5 °C 29 °F /  -1.7 °C 30.28in /  1025.3hPa Calm     92% 0.00in /  0mm 0 W/m2
06:04 31.1 °F /  -0.5 °C 29 °F /  -1.7 °C 30.28in /  1025.3hPa Calm     92% 0.00in /  0mm 0 W/m2
06:09 31 °F /  -0.6 °C 29 °F /  -1.7 °C 30.28in /  1025.3hPa Calm     92% 0.00in /  0mm 0 W/m2
06:14 31 °F /  -0.6 °C 29 °F /  -1.7 °C 30.28in /  1025.3hPa Calm     92% 0.00in /  0mm 0 W/m2
06:19 31 °F /  -0.6 °C 28.9 °F /  -1.7 °C 30.29in /  1025.6hPa Calm     92% 0.00in /  0mm 0 W/m2
06:24 30.9 °F /  -0.6 °C 28.8 °F /  -1.8 °C 30.29in /  1025.6hPa Calm     92% 0.00in /  0mm 0 W/m2
06:29 30.8 °F /  -0.7 °C 28.8 °F /  -1.8 °C 30.28in /  1025.3hPa Calm     92% 0.00in /  0mm 0 W/m2
06:34 30.8 °F /  -0.7 °C 28.7 °F /  -1.8 °C 30.29in /  1025.6hPa Calm     92% 0.00in /  0mm 0 W/m2
06:39 30.7 °F /  -0.7 °C 28.7 °F /  -1.8 °C 30.29in /  1025.6hPa Calm     92% 0.00in /  0mm 0 W/m2
06:44 30.6 °F /  -0.8 °C 28.6 °F /  -1.9 °C 30.29in /  1025.6hPa Calm     92% 0.00in /  0mm 0 W/m2
06:49 30.6 °F /  -0.8 °C 28.5 °F /  -1.9 °C 30.29in /  1025.6hPa Calm     92% 0.00in /  0mm 0 W/m2
06:54 30.5 °F /  -0.8 °C 28.5 °F /  -1.9 °C 30.29in /  1025.6hPa Calm     92% 0.00in /  0mm 0 W/m2
06:59 30.5 °F /  -0.8 °C 28.5 °F /  -1.9 °C 30.30in /  1026hPa Calm     92% 0.00in /  0mm 0 W/m2
07:04 30.5 °F /  -0.8 °C 28.4 °F /  -2 °C 30.30in /  1026hPa Calm     92% 0.00in /  0mm 0 W/m2
07:09 30.5 °F /  -0.8 °C 28.4 °F /  -2 °C 30.30in /  1026hPa Calm     92% 0.00in /  0mm 0 W/m2
07:14 30.5 °F /  -0.8 °C 28.4 °F /  -2 °C 30.30in /  1026hPa Calm     92% 0.00in /  0mm 0 W/m2
07:19 30.5 °F /  -0.8 °C 28.4 °F /  -2 °C 30.30in /  1026hPa Calm     92% 0.00in /  0mm 0 W/m2
07:24 30.5 °F /  -0.8 °C 28.4 °F /  -2 °C 30.30in /  1026hPa Calm     92% 0.00in /  0mm 0 W/m2
07:29 30.5 °F /  -0.8 °C 28.5 °F /  -1.9 °C 30.31in /  1026.3hPa Calm     92% 0.00in /  0mm 0 W/m2
07:34 30.5 °F /  -0.8 °C 28.5 °F /  -1.9 °C 30.31in /  1026.3hPa Calm     92% 0.00in /  0mm 5 W/m2
07:39 30.5 °F /  -0.8 °C 28.4 °F /  -2 °C 30.31in /  1026.3hPa Calm     92% 0.00in /  0mm 9 W/m2
07:44 30.5 °F /  -0.8 °C 28.5 °F /  -1.9 °C 30.31in /  1026.3hPa Calm     92% 0.00in /  0mm 12 W/m2
07:49 30.5 °F /  -0.8 °C 28.5 °F /  -1.9 °C 30.31in /  1026.3hPa Calm     92% 0.00in /  0mm 16 W/m2
07:54 30.5 °F /  -0.8 °C 28.4 °F /  -2 °C 30.31in /  1026.3hPa Calm     92% 0.00in /  0mm 19 W/m2
07:59 30.5 °F /  -0.8 °C 28.7 °F /  -1.8 °C 30.31in /  1026.3hPa Calm     92.8% 0.00in /  0mm 21 W/m2
08:09 30.8 °F /  -0.7 °C 29 °F /  -1.7 °C 30.32in /  1026.6hPa Calm     93% 0.00in /  0mm 35 W/m2
08:14 31.1 °F /  -0.5 °C 29.3 °F /  -1.5 °C 30.32in /  1026.6hPa Calm     93% 0.00in /  0mm 35 W/m2
08:19 31.4 °F /  -0.3 °C 29.6 °F /  -1.3 °C 30.32in /  1026.6hPa Calm     93% 0.00in /  0mm 30 W/m2
08:24 31.6 °F /  -0.2 °C 29.8 °F /  -1.2 °C 30.32in /  1026.6hPa Calm   1mph /  1.6km/h 93% 0.00in /  0mm 39 W/m2
08:29 31.8 °F /  -0.1 °C 30.1 °F /  -1.1 °C 30.33in /  1027hPa Calm   1mph /  1.6km/h 93% 0.00in /  0mm 33 W/m2
08:34 32.1 °F /  0.1 °C 30.3 °F /  -0.9 °C 30.33in /  1027hPa Calm   1mph /  1.6km/h 93% 0.00in /  0mm 56 W/m2
08:39 32.3 °F /  0.2 °C 30.5 °F /  -0.8 °C 30.33in /  1027hPa Calm     93% 0.00in /  0mm 49 W/m2
08:44 32.6 °F /  0.3 °C 30.8 °F /  -0.7 °C 30.33in /  1027hPa Calm     93% 0.00in /  0mm 49 W/m2
08:49 32.9 °F /  0.5 °C 31.1 °F /  -0.5 °C 30.33in /  1027hPa Calm     93% 0.00in /  0mm 54 W/m2
08:54 33.2 °F /  0.7 °C 31.4 °F /  -0.3 °C 30.33in /  1027hPa Calm     93% 0.00in /  0mm 86 W/m2
08:59 33.6 °F /  0.9 °C 31.8 °F /  -0.1 °C 30.34in /  1027.3hPa Calm     93% 0.00in /  0mm 195 W/m2
09:04 34.2 °F /  1.2 °C 32.4 °F /  0.2 °C 30.34in /  1027.3hPa Calm     93% 0.00in /  0mm 253 W/m2
09:09 35.2 °F /  1.8 °C 33.2 °F /  0.7 °C 30.34in /  1027.3hPa Calm     92.5% 0.00in /  0mm 265 W/m2
09:14 36.3 °F /  2.4 °C 34 °F /  1.1 °C 30.34in /  1027.3hPa Calm     91.2% 0.00in /  0mm 278 W/m2
09:19 37.5 °F /  3.1 °C 34.7 °F /  1.5 °C 30.34in /  1027.3hPa Calm     89.2% 0.00in /  0mm 295 W/m2
09:24 38.9 °F /  3.8 °C 35 °F /  1.7 °C 30.34in /  1027.3hPa NNW 0.3mph /  0.5km/h 6mph /  9.7km/h 85.9% 0.00in /  0mm 306 W/m2
09:29 39.9 °F /  4.4 °C 35 °F /  1.7 °C 30.34in /  1027.3hPa NNW 1.5mph /  2.4km/h 6mph /  9.7km/h 82.5% 0.00in /  0mm 322 W/m2
09:34 40.8 °F /  4.9 °C 35.3 °F /  1.8 °C 30.35in /  1027.7hPa NW 0.3mph /  0.5km/h 6mph /  9.7km/h 80.4% 0.00in /  0mm 339 W/m2
09:39 41.7 °F /  5.4 °C 35.5 °F /  1.9 °C 30.35in /  1027.7hPa NNW 0.4mph /  0.6km/h 5mph /  8km/h 78.2% 0.00in /  0mm 355 W/m2
09:44 42.6 °F /  5.9 °C 35.8 °F /  2.1 °C 30.34in /  1027.3hPa NNW 0.2mph /  0.3km/h 5mph /  8km/h 76.5% 0.00in /  0mm 367 W/m2
09:49 43.5 °F /  6.4 °C 35.9 °F /  2.2 °C 30.34in /  1027.3hPa NNW 0.6mph /  1km/h 5mph /  8km/h 74.5% 0.00in /  0mm 378 W/m2
09:54 44.1 °F /  6.7 °C 35.7 °F /  2.1 °C 30.34in /  1027.3hPa North 0.6mph /  1km/h 5mph /  8km/h 72.1% 0.00in /  0mm 388 W/m2
09:59 44.6 °F /  7 °C 35.6 °F /  2 °C 30.35in /  1027.7hPa North 1.1mph /  1.8km/h 5mph /  8km/h 70.5% 0.00in /  0mm 397 W/m2
10:04 44.8 °F /  7.1 °C 35.3 °F /  1.8 °C 30.35in /  1027.7hPa NNE 0.7mph /  1.1km/h 5mph /  8km/h 69.1% 0.00in /  0mm 415 W/m2
10:09 45.1 °F /  7.3 °C 35.5 °F /  1.9 °C 30.35in /  1027.7hPa North 0.8mph /  1.3km/h 4mph /  6.4km/h 68.9% 0.00in /  0mm 422 W/m2
10:14 45.4 °F /  7.4 °C 35.3 °F /  1.8 °C 30.35in /  1027.7hPa NNW 1.1mph /  1.8km/h 7mph /  11.3km/h 67.5% 0.00in /  0mm 434 W/m2
10:19 45.6 °F /  7.6 °C 35.1 °F /  1.7 °C 30.35in /  1027.7hPa North 1mph /  1.6km/h 7mph /  11.3km/h 66.5% 0.00in /  0mm 434 W/m2
10:24 45.7 °F /  7.6 °C 35 °F /  1.7 °C 30.35in /  1027.7hPa North 1mph /  1.6km/h 7mph /  11.3km/h 66% 0.00in /  0mm 276 W/m2
10:29 45.5 °F /  7.5 °C 34.5 °F /  1.4 °C 30.35in /  1027.7hPa East 0.3mph /  0.5km/h 7mph /  11.3km/h 65.2% 0.00in /  0mm 404 W/m2
10:34 45.4 °F /  7.4 °C 34.7 °F /  1.5 °C 30.35in /  1027.7hPa NE 0.8mph /  1.3km/h 7mph /  11.3km/h 66% 0.00in /  0mm 424 W/m2
10:39 45.5 °F /  7.5 °C 34.8 °F /  1.6 °C 30.35in /  1027.7hPa North 1mph /  1.6km/h 6mph /  9.7km/h 66.2% 0.00in /  0mm 468 W/m2
10:44 45.6 °F /  7.6 °C 34.9 °F /  1.6 °C 30.35in /  1027.7hPa NW 1.3mph /  2.1km/h 6mph /  9.7km/h 66% 0.00in /  0mm 494 W/m2
10:49 45.7 °F /  7.6 °C 34.5 °F /  1.4 °C 30.35in /  1027.7hPa NNW 2mph /  3.2km/h 10mph /  16.1km/h 64.8% 0.00in /  0mm 503 W/m2
10:54 45.8 °F /  7.7 °C 34.2 °F /  1.2 °C 30.35in /  1027.7hPa NNW 0.4mph /  0.6km/h 10mph /  16.1km/h 63.7% 0.00in /  0mm 506 W/m2
10:59 46 °F /  7.8 °C 34.3 °F /  1.3 °C 30.35in /  1027.7hPa NW 1mph /  1.6km/h 10mph /  16.1km/h 63.4% 0.00in /  0mm 425 W/m2
11:04 46.2 °F /  7.9 °C 34.1 °F /  1.2 °C 30.35in /  1027.7hPa NNW 1.1mph /  1.8km/h 10mph /  16.1km/h 62.4% 0.00in /  0mm 155 W/m2
11:09 46.4 °F /  8 °C 34 °F /  1.1 °C 30.35in /  1027.7hPa NNE 1mph /  1.6km/h 6mph /  9.7km/h 61.8% 0.00in /  0mm 533 W/m2
11:14 46.7 °F /  8.2 °C 34.2 °F /  1.2 °C 30.35in /  1027.7hPa NE 0.2mph /  0.3km/h 6mph /  9.7km/h 61.5% 0.00in /  0mm 540 W/m2
11:19 47.2 °F /  8.4 °C 34.4 °F /  1.3 °C 30.35in /  1027.7hPa NNE 0.3mph /  0.5km/h 6mph /  9.7km/h 60.8% 0.00in /  0mm 547 W/m2
11:24 47.8 °F /  8.8 °C 34.5 °F /  1.4 °C 30.35in /  1027.7hPa NNW 1.8mph /  2.9km/h 9mph /  14.5km/h 59.8% 0.00in /  0mm 554 W/m2
11:29 48.5 °F /  9.2 °C 35.1 °F /  1.7 °C 30.35in /  1027.7hPa NW 1.4mph /  2.3km/h 9mph /  14.5km/h 59.7% 0.00in /  0mm 561 W/m2
11:34 49.3 °F /  9.6 °C 34.9 °F /  1.6 °C 30.35in /  1027.7hPa North 0.3mph /  0.5km/h 9mph /  14.5km/h 57.6% 0.00in /  0mm 566 W/m2
11:39 49.7 °F /  9.8 °C 34.7 °F /  1.5 °C 30.35in /  1027.7hPa NW 2.4mph /  3.9km/h 10mph /  16.1km/h 56.2% 0.00in /  0mm 570 W/m2
11:44 50 °F /  10 °C 35.1 °F /  1.7 °C 30.35in /  1027.7hPa ENE 0.9mph /  1.4km/h 10mph /  16.1km/h 56.4% 0.00in /  0mm 461 W/m2
11:49 50.3 °F /  10.2 °C 35 °F /  1.7 °C 30.35in /  1027.7hPa NE 0.6mph /  1km/h 10mph /  16.1km/h 55.5% 0.00in /  0mm 417 W/m2
11:54 50.5 °F /  10.3 °C 35.6 °F /  2 °C 30.35in /  1027.7hPa NW 0.5mph /  0.8km/h 10mph /  16.1km/h 56.3% 0.00in /  0mm 396 W/m2
11:59 50.5 °F /  10.3 °C 34.8 °F /  1.6 °C 30.34in /  1027.3hPa NE 1.1mph /  1.8km/h 10mph /  16.1km/h 54.7% 0.00in /  0mm 311 W/m2
12:00 50.4 °F /  10.2 °C 34.4 °F /  1.3 °C 30.34in /  1027.3hPa Calm   10mph /  16.1km/h 54% 0.00in /  0mm 40 W/m2
12:09 50 °F /  10 °C 34 °F /  1.1 °C 30.34in /  1027.3hPa NNW 2.4mph /  3.9km/h 9mph /  14.5km/h 54% 0.00in /  0mm 566 W/m2
12:14 49.8 °F /  9.9 °C 33.9 °F /  1.1 °C 30.34in /  1027.3hPa NNE 1mph /  1.6km/h 9mph /  14.5km/h 54.2% 0.00in /  0mm 515 W/m2
12:19 49.8 °F /  9.9 °C 33.9 °F /  1.1 °C 30.34in /  1027.3hPa NE 1.7mph /  2.7km/h 9mph /  14.5km/h 54.2% 0.00in /  0mm 475 W/m2
12:24 49.7 °F /  9.8 °C 34 °F /  1.1 °C 30.34in /  1027.3hPa NNE 0.6mph /  1km/h 9mph /  14.5km/h 54.7% 0.00in /  0mm 146 W/m2
12:29 49.6 °F /  9.8 °C 33.3 °F /  0.7 °C 30.33in /  1027hPa ENE 0.5mph /  0.8km/h 9mph /  14.5km/h 53.2% 0.00in /  0mm 76 W/m2
12:34 49.6 °F /  9.8 °C 33.6 °F /  0.9 °C 30.33in /  1027hPa NE 0.9mph /  1.4km/h 9mph /  14.5km/h 53.9% 0.00in /  0mm 299 W/m2
12:39 49.8 °F /  9.9 °C 33.6 °F /  0.9 °C 30.33in /  1027hPa NNE 1.9mph /  3.1km/h 7mph /  11.3km/h 53.7% 0.00in /  0mm 183 W/m2
12:44 49.9 °F /  9.9 °C 33.2 °F /  0.7 °C 30.33in /  1027hPa ENE 0.8mph /  1.3km/h 7mph /  11.3km/h 52.4% 0.00in /  0mm 364 W/m2
12:49 50.2 °F /  10.1 °C 33.3 °F /  0.7 °C 30.33in /  1027hPa NE 0.9mph /  1.4km/h 7mph /  11.3km/h 52.1% 0.00in /  0mm 413 W/m2
12:54 50.3 °F /  10.2 °C 33.1 °F /  0.6 °C 30.33in /  1027hPa North 0.5mph /  0.8km/h 10mph /  16.1km/h 51.5% 0.00in /  0mm 432 W/m2
12:59 50.3 °F /  10.2 °C 33.2 °F /  0.7 °C 30.33in /  1027hPa NW 2.1mph /  3.4km/h 10mph /  16.1km/h 51.6% 0.00in /  0mm 248 W/m2
13:04 50.4 °F /  10.2 °C 33.1 °F /  0.6 °C 30.32in /  1026.6hPa NW 0.9mph /  1.4km/h 11mph /  17.7km/h 51.3% 0.00in /  0mm 522 W/m2
13:09 50.4 °F /  10.2 °C 32.3 °F /  0.2 °C 30.31in /  1026.3hPa NNW 2mph /  3.2km/h 11mph /  17.7km/h 49.7% 0.00in /  0mm 366 W/m2
13:14 50.4 °F /  10.2 °C 31.8 °F /  -0.1 °C 30.31in /  1026.3hPa NE 0.2mph /  0.3km/h 11mph /  17.7km/h 48.6% 0.00in /  0mm 251 W/m2
13:19 50.5 °F /  10.3 °C 31.2 °F /  -0.4 °C 30.31in /  1026.3hPa NE 1.3mph /  2.1km/h 11mph /  17.7km/h 47.4% 0.00in /  0mm 397 W/m2
13:24 50.8 °F /  10.4 °C 31.2 °F /  -0.4 °C 30.31in /  1026.3hPa ENE 0.3mph /  0.5km/h 11mph /  17.7km/h 47% 0.00in /  0mm 543 W/m2
13:29 50.9 °F /  10.5 °C 30.4 °F /  -0.9 °C 30.30in /  1026hPa North 0.3mph /  0.5km/h 11mph /  17.7km/h 45.2% 0.00in /  0mm 550 W/m2
13:34 51 °F /  10.6 °C 30.9 °F /  -0.6 °C 30.30in /  1026hPa ENE 1.3mph /  2.1km/h 11mph /  17.7km/h 45.9% 0.00in /  0mm 578 W/m2
13:39 50.8 °F /  10.4 °C 30.5 °F /  -0.8 °C 30.30in /  1026hPa ENE 0.8mph /  1.3km/h 5mph /  8km/h 45.5% 0.00in /  0mm 485 W/m2
13:44 50.8 °F /  10.4 °C 31 °F /  -0.6 °C 30.30in /  1026hPa NE 1.1mph /  1.8km/h 5mph /  8km/h 46.4% 0.00in /  0mm 246 W/m2
13:49 51 °F /  10.6 °C 30.9 °F /  -0.6 °C 30.30in /  1026hPa NE 0.5mph /  0.8km/h 5mph /  8km/h 45.8% 0.00in /  0mm 192 W/m2
13:54 51.1 °F /  10.6 °C 30.4 °F /  -0.9 °C 30.30in /  1026hPa NW 1.3mph /  2.1km/h 11mph /  17.7km/h 44.8% 0.00in /  0mm 492 W/m2
13:59 51.1 °F /  10.6 °C 30.8 °F /  -0.7 °C 30.30in /  1026hPa NW 0.6mph /  1km/h 11mph /  17.7km/h 45.5% 0.00in /  0mm 520 W/m2
14:04 51.1 °F /  10.6 °C 30 °F /  -1.1 °C 30.30in /  1026hPa NE 2.1mph /  3.4km/h 11mph /  17.7km/h 44.1% 0.00in /  0mm 466 W/m2
14:09 50.9 °F /  10.5 °C 29.4 °F /  -1.4 °C 30.30in /  1026hPa ENE 1.9mph /  3.1km/h 7mph /  11.3km/h 43.2% 0.00in /  0mm 461 W/m2
14:14 50.8 °F /  10.4 °C 29.9 °F /  -1.2 °C 30.30in /  1026hPa NE 2.2mph /  3.5km/h 7mph /  11.3km/h 44.3% 0.00in /  0mm 355 W/m2
14:19 50.9 °F /  10.5 °C 29.9 °F /  -1.2 °C 30.29in /  1025.6hPa ENE 0.4mph /  0.6km/h 7mph /  11.3km/h 44.3% 0.00in /  0mm 132 W/m2
14:24 51 °F /  10.6 °C 30 °F /  -1.1 °C 30.29in /  1025.6hPa NNE 0.5mph /  0.8km/h 7mph /  11.3km/h 44.2% 0.00in /  0mm 220 W/m2
14:29 51.3 °F /  10.7 °C 30.5 °F /  -0.8 °C 30.29in /  1025.6hPa NNE 0.1mph /  0.2km/h 7mph /  11.3km/h 44.6% 0.00in /  0mm 218 W/m2
14:34 51.7 °F /  10.9 °C 30.7 °F /  -0.7 °C 30.29in /  1025.6hPa NNW 0.3mph /  0.5km/h 7mph /  11.3km/h 44.4% 0.00in /  0mm 348 W/m2
14:39 52.1 °F /  11.2 °C 31.3 °F /  -0.4 °C 30.29in /  1025.6hPa ENE 0.9mph /  1.4km/h 5mph /  8km/h 44.8% 0.00in /  0mm 396 W/m2
14:44 52.2 °F /  11.2 °C 30.6 °F /  -0.8 °C 30.29in /  1025.6hPa ENE 0.5mph /  0.8km/h 5mph /  8km/h 43.4% 0.00in /  0mm 297 W/m2
14:49 52.1 °F /  11.2 °C 30.6 °F /  -0.8 °C 30.29in /  1025.6hPa ENE 0.8mph /  1.3km/h 6mph /  9.7km/h 43.5% 0.00in /  0mm 343 W/m2
14:54 52.1 °F /  11.2 °C 30.4 °F /  -0.9 °C 30.29in /  1025.6hPa ENE 0.4mph /  0.6km/h 6mph /  9.7km/h 43.2% 0.00in /  0mm 251 W/m2
14:59 52 °F /  11.1 °C 30.5 °F /  -0.8 °C 30.29in /  1025.6hPa ENE 0.5mph /  0.8km/h 6mph /  9.7km/h 43.5% 0.00in /  0mm 190 W/m2
15:04 51.8 °F /  11 °C 29.9 °F /  -1.2 °C 30.29in /  1025.6hPa ENE 0.3mph /  0.5km/h 6mph /  9.7km/h 42.9% 0.00in /  0mm 287 W/m2
15:09 51.6 °F /  10.9 °C 30.6 °F /  -0.8 °C 30.28in /  1025.3hPa ENE 0.7mph /  1.1km/h 4mph /  6.4km/h 44.4% 0.00in /  0mm 127 W/m2
15:14 51.5 °F /  10.8 °C 30.6 °F /  -0.8 °C 30.28in /  1025.3hPa ENE 1.2mph /  1.9km/h 4mph /  6.4km/h 44.6% 0.00in /  0mm 366 W/m2
15:19 51.5 °F /  10.8 °C 30.5 °F /  -0.8 °C 30.28in /  1025.3hPa ENE 0.3mph /  0.5km/h 4mph /  6.4km/h 44.3% 0.00in /  0mm 385 W/m2
15:24 51.6 °F /  10.9 °C 30.4 °F /  -0.9 °C 30.28in /  1025.3hPa ENE 1.4mph /  2.3km/h 6mph /  9.7km/h 44% 0.00in /  0mm 390 W/m2
15:29 51.7 °F /  10.9 °C 30.8 °F /  -0.7 °C 30.28in /  1025.3hPa ENE 0.1mph /  0.2km/h 6mph /  9.7km/h 44.6% 0.00in /  0mm 360 W/m2
15:34 51.7 °F /  10.9 °C 31 °F /  -0.6 °C 30.28in /  1025.3hPa NE 0.6mph /  1km/h 6mph /  9.7km/h 45% 0.00in /  0mm 302 W/m2
15:39 51.5 °F /  10.8 °C 30.9 °F /  -0.6 °C 30.28in /  1025.3hPa NNE 0.3mph /  0.5km/h 3mph /  4.8km/h 45% 0.00in /  0mm 32 W/m2
15:44 51.4 °F /  10.8 °C 30.6 °F /  -0.8 °C 30.28in /  1025.3hPa Calm   3mph /  4.8km/h 44.7% 0.00in /  0mm 30 W/m2
15:49 51.3 °F /  10.7 °C 31 °F /  -0.6 °C 30.28in /  1025.3hPa NNE 0.7mph /  1.1km/h 4mph /  6.4km/h 45.5% 0.00in /  0mm 28 W/m2
15:54 51.2 °F /  10.7 °C 31.3 °F /  -0.4 °C 30.28in /  1025.3hPa Calm   4mph /  6.4km/h 46.4% 0.00in /  0mm 28 W/m2
15:59 51.1 °F /  10.6 °C 30.8 °F /  -0.7 °C 30.28in /  1025.3hPa North 0.1mph /  0.2km/h 4mph /  6.4km/h 45.6% 0.00in /  0mm 26 W/m2
16:00 51 °F /  10.6 °C 30.4 °F /  -0.9 °C 30.28in /  1025.3hPa Calm   4mph /  6.4km/h 45% 0.00in /  0mm 26 W/m2
16:09 50.9 °F /  10.5 °C 30.3 °F /  -0.9 °C 30.28in /  1025.3hPa Calm   1mph /  1.6km/h 45% 0.00in /  0mm 28 W/m2
16:14 50.9 °F /  10.5 °C 30.8 °F /  -0.7 °C 30.28in /  1025.3hPa North 0.1mph /  0.2km/h 1mph /  1.6km/h 45.9% 0.00in /  0mm 26 W/m2
16:19 50.8 °F /  10.4 °C 30.8 °F /  -0.7 °C 30.28in /  1025.3hPa NNW 0.4mph /  0.6km/h 4mph /  6.4km/h 46% 0.00in /  0mm 25 W/m2
16:24 50.8 °F /  10.4 °C 30.8 °F /  -0.7 °C 30.28in /  1025.3hPa Calm   4mph /  6.4km/h 46.1% 0.00in /  0mm 23 W/m2
16:29 50.7 °F /  10.4 °C 30.5 °F /  -0.8 °C 30.28in /  1025.3hPa NW 0.5mph /  0.8km/h 4mph /  6.4km/h 45.7% 0.00in /  0mm 21 W/m2
16:34 50.6 °F /  10.3 °C 30.3 °F /  -0.9 °C 30.28in /  1025.3hPa NNW 0.8mph /  1.3km/h 5mph /  8km/h 45.5% 0.00in /  0mm 21 W/m2
16:39 50.5 °F /  10.3 °C 30 °F /  -1.1 °C 30.28in /  1025.3hPa North 0.3mph /  0.5km/h 5mph /  8km/h 45% 0.00in /  0mm 19 W/m2
16:44 50.4 °F /  10.2 °C 30.2 °F /  -1 °C 30.29in /  1025.6hPa NNW 0.5mph /  0.8km/h 5mph /  8km/h 45.6% 0.00in /  0mm 19 W/m2
16:49 50.4 °F /  10.2 °C 30.1 °F /  -1.1 °C 30.29in /  1025.6hPa NNW 0.4mph /  0.6km/h 5mph /  8km/h 45.4% 0.00in /  0mm 18 W/m2
16:54 50.3 °F /  10.2 °C 29.8 °F /  -1.2 °C 30.29in /  1025.6hPa Calm   5mph /  8km/h 45% 0.00in /  0mm 18 W/m2
16:59 50.3 °F /  10.2 °C 29.8 °F /  -1.2 °C 30.30in /  1026hPa Calm   5mph /  8km/h 45% 0.00in /  0mm 16 W/m2
17:04 50.2 °F /  10.1 °C 29.9 °F /  -1.2 °C 30.30in /  1026hPa Calm   5mph /  8km/h 45.3% 0.00in /  0mm 14 W/m2
17:09 50.1 °F /  10.1 °C 30.1 °F /  -1.1 °C 30.30in /  1026hPa Calm   1mph /  1.6km/h 46% 0.00in /  0mm 14 W/m2
17:14 49.9 °F /  9.9 °C 30.3 °F /  -0.9 °C 30.30in /  1026hPa Calm   1mph /  1.6km/h 46.5% 0.00in /  0mm 12 W/m2
17:19 49.8 °F /  9.9 °C 30.2 °F /  -1 °C 30.31in /  1026.3hPa NNW 0.2mph /  0.3km/h 1mph /  1.6km/h 46.7% 0.00in /  0mm 11 W/m2
17:24 49.6 °F /  9.8 °C 30.4 °F /  -0.9 °C 30.31in /  1026.3hPa Calm   1mph /  1.6km/h 47.2% 0.00in /  0mm 9 W/m2
17:29 49.5 °F /  9.7 °C 30.7 °F /  -0.7 °C 30.31in /  1026.3hPa NNW 0.2mph /  0.3km/h 3mph /  4.8km/h 48.2% 0.00in /  0mm 7 W/m2
17:34 49.3 °F /  9.6 °C 30.5 °F /  -0.8 °C 30.31in /  1026.3hPa NNW 0.2mph /  0.3km/h 3mph /  4.8km/h 48% 0.00in /  0mm 5 W/m2
17:39 49.1 °F /  9.5 °C 30.3 °F /  -0.9 °C 30.32in /  1026.6hPa Calm   3mph /  4.8km/h 48% 0.00in /  0mm 0 W/m2
17:44 48.9 °F /  9.4 °C 30.1 °F /  -1.1 °C 30.32in /  1026.6hPa Calm   3mph /  4.8km/h 48% 0.00in /  0mm 0 W/m2
17:49 48.7 °F /  9.3 °C 30 °F /  -1.1 °C 30.32in /  1026.6hPa Calm   3mph /  4.8km/h 48.3% 0.00in /  0mm 0 W/m2
17:54 48.4 °F /  9.1 °C 30.1 °F /  -1.1 °C 30.32in /  1026.6hPa NNW 0.2mph /  0.3km/h 3mph /  4.8km/h 49% 0.00in /  0mm 0 W/m2
17:59 48.1 °F /  8.9 °C 30.1 °F /  -1.1 °C 30.32in /  1026.6hPa NNW 0.1mph /  0.2km/h 3mph /  4.8km/h 49.5% 0.00in /  0mm 0 W/m2
18:04 47.8 °F /  8.8 °C 30.1 °F /  -1.1 °C 30.33in /  1027hPa Calm   3mph /  4.8km/h 50% 0.00in /  0mm 0 W/m2
18:09 47.5 °F /  8.6 °C 29.8 °F /  -1.2 °C 30.33in /  1027hPa NNW 0.1mph /  0.2km/h 1mph /  1.6km/h 50% 0.00in /  0mm 0 W/m2
18:14 47.2 °F /  8.4 °C 30 °F /  -1.1 °C 30.33in /  1027hPa Calm   1mph /  1.6km/h 51% 0.00in /  0mm 0 W/m2
18:19 46.9 °F /  8.3 °C 29.8 °F /  -1.2 °C 30.33in /  1027hPa NNW 0.1mph /  0.2km/h 2mph /  3.2km/h 51% 0.00in /  0mm 0 W/m2
18:24 46.7 °F /  8.2 °C 29.6 °F /  -1.3 °C 30.33in /  1027hPa Calm   2mph /  3.2km/h 51.1% 0.00in /  0mm 0 W/m2
18:29 46.4 °F /  8 °C 29.8 °F /  -1.2 °C 30.34in /  1027.3hPa Calm   2mph /  3.2km/h 52% 0.00in /  0mm 0 W/m2
18:34 46.2 °F /  7.9 °C 29.5 °F /  -1.4 °C 30.34in /  1027.3hPa Calm   2mph /  3.2km/h 52% 0.00in /  0mm 0 W/m2
18:39 45.9 °F /  7.7 °C 29.3 °F /  -1.5 °C 30.34in /  1027.3hPa NNW 0.1mph /  0.2km/h 2mph /  3.2km/h 52% 0.00in /  0mm 0 W/m2
18:44 45.7 °F /  7.6 °C 29.2 °F /  -1.6 °C 30.35in /  1027.7hPa NNW 0.1mph /  0.2km/h 2mph /  3.2km/h 52.3% 0.00in /  0mm 0 W/m2
18:49 45.5 °F /  7.5 °C 29.4 °F /  -1.4 °C 30.35in /  1027.7hPa NNW 0.1mph /  0.2km/h 2mph /  3.2km/h 53% 0.00in /  0mm 0 W/m2
18:54 45.3 °F /  7.4 °C 29.6 °F /  -1.3 °C 30.35in /  1027.7hPa NNW 0.3mph /  0.5km/h 3mph /  4.8km/h 53.8% 0.00in /  0mm 0 W/m2
18:59 45.1 °F /  7.3 °C 29.3 °F /  -1.5 °C 30.35in /  1027.7hPa Calm   3mph /  4.8km/h 53.7% 0.00in /  0mm 0 W/m2
19:04 45 °F /  7.2 °C 29.3 °F /  -1.5 °C 30.35in /  1027.7hPa NNW 0.3mph /  0.5km/h 3mph /  4.8km/h 54% 0.00in /  0mm 0 W/m2
19:09 44.8 °F /  7.1 °C 29.2 °F /  -1.6 °C 30.36in /  1028hPa NNW 0.4mph /  0.6km/h 3mph /  4.8km/h 54% 0.00in /  0mm 0 W/m2
19:14 44.7 °F /  7.1 °C 29.2 °F /  -1.6 °C 30.36in /  1028hPa NW 0.6mph /  1km/h 5mph /  8km/h 54.3% 0.00in /  0mm 0 W/m2
19:19 44.5 °F /  6.9 °C 29 °F /  -1.7 °C 30.36in /  1028hPa NW 0.2mph /  0.3km/h 5mph /  8km/h 54.2% 0.00in /  0mm 0 W/m2
19:24 44.4 °F /  6.9 °C 28.8 °F /  -1.8 °C 30.37in /  1028.3hPa Calm   5mph /  8km/h 54% 0.00in /  0mm 0 W/m2
19:29 44.3 °F /  6.8 °C 28.7 °F /  -1.8 °C 30.37in /  1028.3hPa Calm   5mph /  8km/h 54% 0.00in /  0mm 0 W/m2
19:34 44.3 °F /  6.8 °C 28.7 °F /  -1.8 °C 30.37in /  1028.3hPa Calm   5mph /  8km/h 54% 0.00in /  0mm 0 W/m2
19:39 44.2 °F /  6.8 °C 28.9 °F /  -1.7 °C 30.37in /  1028.3hPa Calm     54.7% 0.00in /  0mm 0 W/m2
19:44 44.2 °F /  6.8 °C 28.8 °F /  -1.8 °C 30.37in /  1028.3hPa Calm     54.4% 0.00in /  0mm 0 W/m2
19:49 44.1 °F /  6.7 °C 29 °F /  -1.7 °C 30.38in /  1028.7hPa Calm     55% 0.00in /  0mm 0 W/m2
19:54 44 °F /  6.7 °C 28.9 °F /  -1.7 °C 30.38in /  1028.7hPa Calm     55% 0.00in /  0mm 0 W/m2
19:59 43.9 °F /  6.6 °C 28.9 °F /  -1.7 °C 30.37in /  1028.3hPa Calm     55.3% 0.00in /  0mm 0 W/m2
20:00 43.8 °F /  6.6 °C 29.1 °F /  -1.6 °C 30.37in /  1028.3hPa Calm     56% 0.00in /  0mm 0 W/m2
20:09 43.6 °F /  6.4 °C 29 °F /  -1.7 °C 30.37in /  1028.3hPa Calm     56% 0.00in /  0mm 0 W/m2
20:14 43.6 °F /  6.4 °C 29 °F /  -1.7 °C 30.37in /  1028.3hPa NW 0.1mph /  0.2km/h 1mph /  1.6km/h 56.3% 0.00in /  0mm 0 W/m2
20:19 43.4 °F /  6.3 °C 29 °F /  -1.7 °C 30.37in /  1028.3hPa Calm   1mph /  1.6km/h 56.5% 0.00in /  0mm 0 W/m2
20:24 43.3 °F /  6.3 °C 29.1 °F /  -1.6 °C 30.37in /  1028.3hPa Calm   1mph /  1.6km/h 57% 0.00in /  0mm 0 W/m2
20:29 43.1 °F /  6.2 °C 29.1 °F /  -1.6 °C 30.37in /  1028.3hPa Calm   1mph /  1.6km/h 57.3% 0.00in /  0mm 0 W/m2
20:34 42.9 °F /  6.1 °C 29.2 °F /  -1.6 °C 30.37in /  1028.3hPa Calm   1mph /  1.6km/h 58.1% 0.00in /  0mm 0 W/m2
20:39 42.8 °F /  6 °C 29 °F /  -1.7 °C 30.37in /  1028.3hPa Calm     57.8% 0.00in /  0mm 0 W/m2
20:44 42.7 °F /  5.9 °C 29.2 °F /  -1.6 °C 30.37in /  1028.3hPa Calm     58.6% 0.00in /  0mm 0 W/m2
20:49 42.5 °F /  5.8 °C 29.3 °F /  -1.5 °C 30.37in /  1028.3hPa Calm     59.2% 0.00in /  0mm 0 W/m2
20:54 42.3 °F /  5.7 °C 29.2 °F /  -1.6 °C 30.37in /  1028.3hPa Calm     59.4% 0.00in /  0mm 0 W/m2
20:59 42.1 °F /  5.6 °C 28.9 °F /  -1.7 °C 30.37in /  1028.3hPa Calm     59.3% 0.00in /  0mm 0 W/m2
21:04 41.9 °F /  5.5 °C 29.1 °F /  -1.6 °C 30.37in /  1028.3hPa Calm     60% 0.00in /  0mm 0 W/m2
21:09 41.8 °F /  5.4 °C 29.3 °F /  -1.5 °C 30.37in /  1028.3hPa Calm     61% 0.00in /  0mm 0 W/m2
21:14 41.7 °F /  5.4 °C 29.2 °F /  -1.6 °C 30.37in /  1028.3hPa Calm     61% 0.00in /  0mm 0 W/m2
21:19 41.6 °F /  5.3 °C 29.1 °F /  -1.6 °C 30.36in /  1028hPa Calm     61% 0.00in /  0mm 0 W/m2
21:24 41.4 °F /  5.2 °C 29 °F /  -1.7 °C 30.36in /  1028hPa Calm     61% 0.00in /  0mm 0 W/m2
21:29 41.3 °F /  5.2 °C 29.3 °F /  -1.5 °C 30.37in /  1028.3hPa Calm     62.2% 0.00in /  0mm 0 W/m2
21:34 41.1 °F /  5.1 °C 29.4 °F /  -1.4 °C 30.37in /  1028.3hPa Calm     62.7% 0.00in /  0mm 0 W/m2
21:39 41 °F /  5 °C 29.8 °F /  -1.2 °C 30.37in /  1028.3hPa Calm     64% 0.00in /  0mm 0 W/m2
21:44 40.9 °F /  4.9 °C 29.8 °F /  -1.2 °C 30.37in /  1028.3hPa Calm     64.5% 0.00in /  0mm 0 W/m2
21:49 40.7 °F /  4.8 °C 29.8 °F /  -1.2 °C 30.37in /  1028.3hPa Calm     64.9% 0.00in /  0mm 0 W/m2
21:54 40.4 °F /  4.7 °C 29.8 °F /  -1.2 °C 30.37in /  1028.3hPa Calm     65.4% 0.00in /  0mm 0 W/m2
21:59 40.2 °F /  4.6 °C 29.4 °F /  -1.4 °C 30.37in /  1028.3hPa Calm     65% 0.00in /  0mm 0 W/m2
22:04 40 °F /  4.4 °C 29.3 °F /  -1.5 °C 30.37in /  1028.3hPa Calm     65.3% 0.00in /  0mm 0 W/m2
22:09 39.8 °F /  4.3 °C 29.6 °F /  -1.3 °C 30.37in /  1028.3hPa Calm     66.6% 0.00in /  0mm 0 W/m2
22:14 39.5 °F /  4.2 °C 30.1 °F /  -1.1 °C 30.37in /  1028.3hPa Calm     68.9% 0.00in /  0mm 0 W/m2
22:19 39.1 °F /  3.9 °C 30.2 °F /  -1 °C 30.37in /  1028.3hPa Calm     70% 0.00in /  0mm 0 W/m2
22:24 38.8 °F /  3.8 °C 30.1 °F /  -1.1 °C 30.37in /  1028.3hPa Calm     70.8% 0.00in /  0mm 0 W/m2
22:29 38.6 °F /  3.7 °C 30 °F /  -1.1 °C 30.37in /  1028.3hPa Calm     71% 0.00in /  0mm 0 W/m2
22:34 38.4 °F /  3.6 °C 29.8 °F /  -1.2 °C 30.37in /  1028.3hPa Calm     71% 0.00in /  0mm 0 W/m2
22:39 38.3 °F /  3.5 °C 30 °F /  -1.1 °C 30.37in /  1028.3hPa Calm     72% 0.00in /  0mm 0 W/m2
22:44 38.1 °F /  3.4 °C 29.9 °F /  -1.2 °C 30.37in /  1028.3hPa Calm     72% 0.00in /  0mm 0 W/m2
22:49 37.9 °F /  3.3 °C 30 °F /  -1.1 °C 30.37in /  1028.3hPa Calm     72.7% 0.00in /  0mm 0 W/m2
22:54 37.8 °F /  3.2 °C 29.9 °F /  -1.2 °C 30.37in /  1028.3hPa Calm     73% 0.00in /  0mm 0 W/m2
22:59 37.6 °F /  3.1 °C 29.8 °F /  -1.2 °C 30.37in /  1028.3hPa Calm     73.2% 0.00in /  0mm 0 W/m2
23:04 37.5 °F /  3.1 °C 29.9 °F /  -1.2 °C 30.37in /  1028.3hPa Calm     74% 0.00in /  0mm 0 W/m2
23:09 37.3 °F /  2.9 °C 29.8 °F /  -1.2 °C 30.37in /  1028.3hPa Calm     74% 0.00in /  0mm 0 W/m2
23:14 37.1 °F /  2.8 °C 29.8 °F /  -1.2 °C 30.37in /  1028.3hPa Calm     74.7% 0.00in /  0mm 0 W/m2
23:19 37 °F /  2.8 °C 29.8 °F /  -1.2 °C 30.37in /  1028.3hPa Calm     75% 0.00in /  0mm 0 W/m2
23:24 36.9 °F /  2.7 °C 29.8 °F /  -1.2 °C 30.37in /  1028.3hPa Calm     75.1% 0.00in /  0mm 0 W/m2
23:29 36.8 °F /  2.7 °C 30 °F /  -1.1 °C 30.37in /  1028.3hPa Calm     76.1% 0.00in /  0mm 0 W/m2
23:34 36.7 °F /  2.6 °C 30.1 °F /  -1.1 °C 30.37in /  1028.3hPa Calm     77% 0.00in /  0mm 0 W/m2
23:39 36.6 °F /  2.6 °C 30.2 °F /  -1 °C 30.37in /  1028.3hPa Calm     77.4% 0.00in /  0mm 0 W/m2
23:44 36.4 °F /  2.4 °C 30.2 °F /  -1 °C 30.37in /  1028.3hPa Calm     78% 0.00in /  0mm 0 W/m2
23:49 36.2 °F /  2.3 °C 30.2 °F /  -1 °C 30.37in /  1028.3hPa Calm     78.7% 0.00in /  0mm 0 W/m2
23:54 36.1 °F /  2.3 °C 30.3 °F /  -0.9 °C 30.37in /  1028.3hPa Calm     79.3% 0.00in /  0mm 0 W/m2
23:59 36 °F /  2.2 °C 30.5 °F /  -0.8 °C 30.37in /  1028.3hPa Calm     80.3% 0.00in /  0mm 0 W/m2
Hartford County Weather
Compliments of Weather Underground - 2 mb